Time;durP1;ratioP1;P1;durP2;ratioP2;P2;SDS_P1;SDS_P2;PMS_P1;PMS_P2;Temp;Humidity;BMP_temperature;BMP_pressure;BME280_temperature;BME280_humidity;BME280_pressure;Samples;Min_cycle;Max_cycle;Signal;HPM_P1;HPM_P2
2023/07/08 00:00:30;;;;;;;23.55;15.60;;;;;;;19.55;71.59;95529.03;5130364;28;20049;-78
2023/07/08 00:02:55;;;;;;;28.02;14.63;;;;;;;19.19;72.00;95489.09;5112620;28;20035;-78
2023/07/08 00:05:23;;;;;;;22.55;15.73;;;;;;;19.51;71.89;95522.75;5105716;28;20038;-78
2023/07/08 00:07:48;;;;;;;24.70;17.52;;;;;;;19.27;72.10;95476.75;5119941;28;20087;-79
2023/07/08 00:10:23;;;;;;;20.75;16.42;;;;;;;19.23;71.76;95481.97;5107793;28;20016;-78
2023/07/08 00:12:51;;;;;;;22.25;16.55;;;;;;;19.19;72.25;95478.34;5124531;28;20041;-79
2023/07/08 00:15:22;;;;;;;22.55;16.85;;;;;;;19.42;72.13;95513.88;5104972;28;20084;-78
2023/07/08 00:17:47;;;;;;;26.63;17.50;;;;;;;19.32;72.32;95498.06;5128285;28;20450;-78
2023/07/08 00:20:35;;;;;;;21.27;16.63;;;;;;;19.31;72.58;95509.16;5140173;27;20043;-78
2023/07/08 00:23:01;;;;;;;25.75;17.92;;;;;;;19.21;72.15;95483.41;5126941;27;20031;-78
2023/07/08 00:25:27;;;;;;;24.35;17.15;;;;;;;19.14;72.89;95504.63;5112221;28;20075;-78
2023/07/08 00:27:53;;;;;;;20.27;16.83;;;;;;;18.74;72.89;95444.91;5117857;28;20549;-78
2023/07/08 00:30:27;;;;;;;24.58;18.25;;;;;;;19.12;72.97;95496.06;5129245;27;20039;-78
2023/07/08 00:32:54;;;;;;;23.92;16.65;;;;;;;18.41;73.45;95394.34;5135076;27;20092;-78
2023/07/08 00:35:28;;;;;;;26.40;17.23;;;;;;;18.41;72.75;95362.13;5108333;28;20027;-78
2023/07/08 00:37:53;;;;;;;30.38;16.52;;;;;;;19.24;72.91;95488.13;5120147;28;20043;-78
2023/07/08 00:40:21;;;;;;;25.40;17.65;;;;;;;18.77;72.55;95422.78;5128072;28;20054;-78
2023/07/08 00:42:48;;;;;;;25.67;16.10;;;;;;;19.07;72.63;95458.63;5113557;28;20031;-78
2023/07/08 00:45:37;;;;;;;24.50;16.38;;;;;;;19.00;73.29;95495.91;5130583;27;20038;-78
2023/07/08 00:48:15;;;;;;;23.92;16.63;;;;;;;18.68;73.41;95447.00;5115010;28;20134;-78
2023/07/08 00:50:41;;;;;;;21.42;16.00;;;;;;;18.94;73.58;95492.63;5139032;27;20031;-78
2023/07/08 00:53:22;;;;;;;25.55;16.50;;;;;;;18.94;73.17;95460.38;5115099;28;20515;-78
2023/07/08 00:55:48;;;;;;;26.42;16.17;;;;;;;19.05;72.73;95468.91;5109426;28;20040;-79
2023/07/08 00:58:19;;;;;;;22.90;15.02;;;;;;;18.95;72.81;95450.41;5142155;27;20461;-78
2023/07/08 01:00:44;;;;;;;24.45;16.10;;;;;;;19.03;72.82;95489.91;5113200;27;20091;-78
2023/07/08 01:03:10;;;;;;;21.13;16.13;;;;;;;19.01;73.06;95467.94;5130028;27;20023;-78
2023/07/08 01:05:38;;;;;;;25.00;16.30;;;;;;;19.04;72.94;95476.16;5133007;27;20030;-78
2023/07/08 01:08:05;;;;;;;22.02;15.43;;;;;;;18.56;73.48;95411.09;5097958;27;20031;-78
2023/07/08 01:10:39;;;;;;;20.25;14.60;;;;;;;18.55;73.43;95415.66;5140338;27;20034;-78
2023/07/08 01:13:07;;;;;;;24.00;13.95;;;;;;;18.48;73.96;95415.34;5127892;27;20024;-78
2023/07/08 01:15:39;;;;;;;18.77;14.32;;;;;;;18.71;74.06;95458.97;5121699;27;20582;-78
2023/07/08 01:18:05;;;;;;;23.27;15.82;;;;;;;18.57;74.51;95444.94;5141595;27;20023;-78
2023/07/08 01:20:31;;;;;;;17.95;14.23;;;;;;;18.57;74.34;95447.63;5109510;27;20084;-78
2023/07/08 01:22:57;;;;;;;23.88;15.63;;;;;;;18.60;74.47;95469.28;5130987;27;20387;-78
2023/07/08 01:25:23;;;;;;;19.40;14.63;;;;;;;18.23;75.00;95446.50;5109973;27;20282;-78
2023/07/08 01:27:54;;;;;;;18.15;14.63;;;;;;;17.83;74.76;95364.53;5110488;27;20094;-78
2023/07/08 01:30:19;;;;;;;20.77;14.07;;;;;;;18.18;75.05;95413.63;5135077;27;20046;-78
2023/07/08 01:32:50;;;;;;;19.48;14.38;;;;;;;18.04;74.90;95384.25;5108720;27;20031;-78
2023/07/08 01:35:16;;;;;;;20.92;14.63;;;;;;;18.31;74.82;95413.47;5113406;27;20035;-78
2023/07/08 01:37:48;;;;;;;25.00;16.10;;;;;;;18.29;74.96;95414.91;5131882;27;20153;-78
2023/07/08 01:40:37;;;;;;;19.42;14.20;;;;;;;18.57;75.10;95458.34;5113278;27;20050;-78
2023/07/08 01:43:05;;;;;;;22.13;14.88;;;;;;;18.60;73.87;95447.78;5105877;27;20199;-78
2023/07/08 01:45:39;;;;;;;25.40;14.57;;;;;;;18.67;73.88;95458.03;5107359;28;20091;-78
2023/07/08 01:48:17;;;;;;;23.00;15.40;;;;;;;18.76;73.69;95454.25;5110517;28;20051;-78
2023/07/08 01:51:04;;;;;;;17.52;14.00;;;;;;;18.86;73.10;95445.84;5127362;27;20042;-78
2023/07/08 01:53:33;;;;;;;20.60;14.77;;;;;;;18.56;73.09;95411.09;5127837;27;20023;-78
2023/07/08 01:55:59;;;;;;;21.08;14.02;;;;;;;18.61;72.97;95411.75;5110980;27;20058;-78
2023/07/08 01:58:25;;;;;;;21.00;14.13;;;;;;;18.63;72.88;95424.84;5116914;27;20027;-80
2023/07/08 02:00:51;;;;;;;19.63;14.30;;;;;;;18.78;73.14;95441.25;5132910;27;20457;-78
2023/07/08 02:03:17;;;;;;;19.65;14.57;;;;;;;18.81;72.84;95442.53;5131075;27;20105;-78
2023/07/08 02:05:43;;;;;;;20.27;14.10;;;;;;;18.86;72.95;95443.16;5128153;27;20578;-78
2023/07/08 02:08:09;;;;;;;20.38;13.82;;;;;;;18.77;72.67;95433.53;5105882;27;20030;-78
2023/07/08 02:10:34;;;;;;;19.58;14.02;;;;;;;17.76;73.36;95319.38;5128056;27;20051;-78
2023/07/08 02:13:00;;;;;;;19.35;13.93;;;;;;;18.45;73.57;95426.75;5126428;27;20134;-78
2023/07/08 02:15:26;;;;;;;22.25;13.48;;;;;;;18.62;73.33;95445.53;5129728;27;20505;-78
2023/07/08 02:17:52;;;;;;;17.73;14.20;;;;;;;18.53;73.29;95431.31;5130695;27;20544;-77
2023/07/08 02:20:18;;;;;;;23.33;13.73;;;;;;;18.50;73.33;95421.22;5129005;27;20067;-78
2023/07/08 02:22:43;;;;;;;20.88;13.52;;;;;;;18.55;72.75;95431.00;5127359;27;20046;-78
2023/07/08 02:25:09;;;;;;;22.92;13.75;;;;;;;18.68;73.11;95448.88;5097773;28;20433;-78
2023/07/08 02:27:37;;;;;;;22.05;14.15;;;;;;;18.58;72.88;95446.50;5121895;27;20469;-78
2023/07/08 02:30:03;;;;;;;21.67;13.93;;;;;;;18.57;73.26;95443.03;5126058;27;20456;-78
2023/07/08 02:32:29;;;;;;;20.92;13.63;;;;;;;18.89;72.85;95482.03;5125361;27;20039;-78
2023/07/08 02:34:54;;;;;;;18.92;13.20;;;;;;;18.42;73.38;95435.44;5104414;27;20035;-77
2023/07/08 02:37:20;;;;;;;23.63;13.10;;;;;;;18.55;73.43;95476.66;5099474;27;20503;-78
2023/07/08 02:39:45;;;;;;;19.23;12.70;;;;;;;18.54;73.64;95464.34;5103624;28;20032;-78
2023/07/08 02:42:11;;;;;;;21.27;13.05;;;;;;;18.64;73.54;95494.38;5089476;28;20483;-78
2023/07/08 02:44:36;;;;;;;19.40;13.52;;;;;;;18.48;73.50;95472.53;5112492;27;20035;-77
2023/07/08 02:47:01;;;;;;;19.73;12.73;;;;;;;18.60;73.21;95482.69;5103910;28;20031;-78
2023/07/08 02:49:27;;;;;;;22.65;13.40;;;;;;;18.69;73.41;95488.06;5106748;27;20027;-78
2023/07/08 02:51:52;;;;;;;14.82;11.82;;;;;;;18.72;73.21;95495.47;5121970;27;20034;-78
2023/07/08 02:54:18;;;;;;;21.77;13.05;;;;;;;18.54;73.98;95499.25;5105186;27;20027;-78
2023/07/08 02:56:43;;;;;;;17.30;12.82;;;;;;;18.32;74.23;95484.84;5117138;27;20370;-78
2023/07/08 02:59:09;;;;;;;19.33;12.50;;;;;;;18.48;74.08;95504.78;5124732;27;20023;-77
2023/07/08 03:01:41;;;;;;;16.38;12.90;;;;;;;18.05;74.55;95456.41;5113659;27;20107;-77
2023/07/08 03:04:12;;;;;;;19.10;13.15;;;;;;;18.18;74.60;95488.78;5112027;27;20466;-78
2023/07/08 03:06:45;;;;;;;18.83;12.95;;;;;;;18.40;74.29;95502.88;5100884;28;20070;-78
2023/07/08 03:09:12;;;;;;;21.30;13.75;;;;;;;18.38;74.71;95498.94;5125937;27;20038;-78
2023/07/08 03:11:38;;;;;;;24.58;14.85;;;;;;;18.12;74.44;95443.31;5099711;28;20116;-78
2023/07/08 03:14:04;;;;;;;17.90;14.30;;;;;;;18.20;74.30;95452.47;5111664;27;20058;-77
2023/07/08 03:16:30;;;;;;;19.30;12.45;;;;;;;18.25;74.11;95473.00;5092826;28;20027;-78
2023/07/08 03:18:56;;;;;;;18.42;13.02;;;;;;;18.11;74.61;95465.09;5118356;27;20045;-77
2023/07/08 03:21:21;;;;;;;19.92;14.27;;;;;;;18.06;74.43;95462.56;5121902;27;20102;-78
2023/07/08 03:23:51;;;;;;;17.55;14.15;;;;;;;17.93;74.64;95431.28;5117091;27;20105;-77
2023/07/08 03:26:20;;;;;;;24.05;14.20;;;;;;;18.27;74.76;95493.06;5109402;27;20089;-78
2023/07/08 03:28:47;;;;;;;21.80;12.70;;;;;;;17.98;74.62;95441.88;5115653;27;20517;-78
2023/07/08 03:31:12;;;;;;;20.88;12.77;;;;;;;18.16;74.75;95466.84;5122198;27;20035;-78
2023/07/08 03:33:38;;;;;;;19.73;12.80;;;;;;;18.08;74.40;95439.66;5113699;27;20038;-78
2023/07/08 03:36:12;;;;;;;19.35;12.43;;;;;;;18.21;74.44;95472.06;5135764;27;20031;-78
2023/07/08 03:38:37;;;;;;;21.02;11.57;;;;;;;18.01;74.69;95444.72;5134535;27;20090;-79
2023/07/08 03:41:03;;;;;;;17.02;11.48;;;;;;;18.12;74.88;95475.53;5112943;27;20115;-79
2023/07/08 03:43:29;;;;;;;19.88;11.38;;;;;;;18.29;74.75;95479.34;5117110;27;20504;-79
2023/07/08 03:45:55;;;;;;;18.00;11.23;;;;;;;18.30;74.84;95484.41;5138027;27;20049;-79
2023/07/08 03:48:20;;;;;;;20.65;11.40;;;;;;;18.16;75.01;95456.88;5121804;27;20023;-79
2023/07/08 03:50:46;;;;;;;13.25;10.13;;;;;;;18.26;74.60;95466.53;5119745;27;20127;-78
2023/07/08 03:53:11;;;;;;;17.73;10.65;;;;;;;18.19;74.30;95448.22;5122120;27;20031;-79
2023/07/08 03:55:38;;;;;;;17.77;11.13;;;;;;;17.63;74.64;95387.34;5115919;27;20038;-79
2023/07/08 03:58:03;;;;;;;13.75;9.95;;;;;;;18.28;74.59;95473.19;5112678;28;20038;-79
2023/07/08 04:00:29;;;;;;;18.05;11.05;;;;;;;18.50;74.30;95489.13;5122457;27;20027;-79
2023/07/08 04:02:54;;;;;;;18.52;10.65;;;;;;;18.35;74.24;95459.28;5103229;27;20054;-79
2023/07/08 04:05:22;;;;;;;18.77;11.18;;;;;;;18.61;73.86;95478.13;5131964;27;20067;-79
2023/07/08 04:07:49;;;;;;;18.40;11.75;;;;;;;18.37;73.64;95452.50;5119719;28;20038;-79
2023/07/08 04:10:16;;;;;;;15.98;10.48;;;;;;;18.60;73.91;95488.06;5137710;27;20038;-79
2023/07/08 04:12:42;;;;;;;21.33;11.07;;;;;;;18.30;74.15;95470.97;5130019;28;20030;-79
2023/07/08 04:15:10;;;;;;;12.93;10.02;;;;;;;18.38;73.80;95464.03;5120090;28;20027;-79
2023/07/08 04:17:43;;;;;;;12.15;10.10;;;;;;;18.61;73.89;95508.47;5122532;28;20111;-79
2023/07/08 04:20:14;;;;;;;15.15;10.30;;;;;;;18.33;74.18;95481.06;5130440;28;20043;-80
2023/07/08 04:22:39;;;;;;;14.65;10.15;;;;;;;18.41;74.14;95511.72;5119599;28;20039;-79
2023/07/08 04:25:05;;;;;;;18.50;10.70;;;;;;;18.16;74.15;95442.69;5116575;28;20469;-79
2023/07/08 04:27:31;;;;;;;20.48;10.63;;;;;;;18.20;74.36;95454.38;5125331;28;20027;-79
2023/07/08 04:29:57;;;;;;;17.20;10.20;;;;;;;18.38;73.71;95443.34;5124130;28;20027;-79
2023/07/08 04:32:25;;;;;;;16.38;10.77;;;;;;;18.89;73.11;95506.22;5101581;28;20535;-79
2023/07/08 04:34:51;;;;;;;16.88;10.52;;;;;;;18.70;73.02;95489.63;5082042;28;20039;-79
2023/07/08 04:37:17;;;;;;;19.38;11.23;;;;;;;18.78;72.96;95510.31;5091431;28;20036;-79
2023/07/08 04:39:42;;;;;;;19.40;11.07;;;;;;;18.86;72.88;95512.22;5096707;28;20032;-79
2023/07/08 04:42:08;;;;;;;14.82;10.02;;;;;;;18.33;72.97;95462.28;5120811;27;20088;-79
2023/07/08 04:44:33;;;;;;;15.93;9.25;;;;;;;18.66;72.89;95481.44;5104398;28;20042;-79
2023/07/08 04:46:59;;;;;;;16.98;10.13;;;;;;;18.87;73.61;95511.91;5101492;28;20032;-79
2023/07/08 04:49:31;;;;;;;17.10;10.82;;;;;;;18.89;72.54;95514.28;5098746;28;20059;-79
2023/07/08 04:51:58;;;;;;;17.08;10.85;;;;;;;18.90;72.84;95507.81;5123612;27;20035;-79
2023/07/08 04:54:24;;;;;;;16.25;11.25;;;;;;;18.67;73.30;95491.06;5099632;28;20044;-79
2023/07/08 04:56:49;;;;;;;19.17;11.18;;;;;;;18.61;73.22;95488.88;5093098;28;20387;-79
2023/07/08 04:59:18;;;;;;;15.15;11.40;;;;;;;18.33;73.39;95456.13;5105052;28;20031;-79
2023/07/08 05:01:44;;;;;;;15.57;11.07;;;;;;;18.22;73.56;95452.97;5091214;28;20044;-79
2023/07/08 05:04:13;;;;;;;17.27;10.90;;;;;;;18.39;73.54;95474.44;5094314;28;20065;-79
2023/07/08 05:06:39;;;;;;;21.20;11.90;;;;;;;18.62;73.38;95528.03;5100967;28;20478;-79
2023/07/08 05:09:05;;;;;;;18.15;9.98;;;;;;;18.45;73.37;95501.94;5096022;28;20422;-79
2023/07/08 05:11:31;;;;;;;19.55;10.93;;;;;;;18.55;73.71;95496.25;5103210;28;20034;-79
2023/07/08 05:13:57;;;;;;;19.70;11.00;;;;;;;18.55;73.40;95506.19;5103095;27;20062;-79
2023/07/08 05:16:23;;;;;;;16.23;11.07;;;;;;;18.36;73.55;95474.28;5106938;27;20031;-79
2023/07/08 05:18:48;;;;;;;14.63;11.18;;;;;;;18.74;73.02;95537.06;5132382;27;20498;-79
2023/07/08 05:21:15;;;;;;;17.90;10.50;;;;;;;18.69;73.43;95549.88;5109793;28;20660;-79
2023/07/08 05:23:40;;;;;;;17.02;10.98;;;;;;;18.69;73.10;95528.38;5115577;27;20107;-79
2023/07/08 05:26:07;;;;;;;16.48;11.00;;;;;;;18.67;73.08;95509.88;5109300;28;20035;-79
2023/07/08 05:28:33;;;;;;;13.80;9.98;;;;;;;18.89;72.92;95550.03;5130664;27;20034;-79
2023/07/08 05:30:58;;;;;;;13.43;10.10;;;;;;;18.68;72.74;95508.78;5131466;27;20020;-79
2023/07/08 05:33:26;;;;;;;15.50;10.27;;;;;;;18.83;72.40;95543.22;5133135;27;20422;-79
2023/07/08 05:35:51;;;;;;;13.18;10.10;;;;;;;18.67;71.89;95528.69;5132746;27;20462;-79
2023/07/08 05:38:17;;;;;;;11.70;9.02;;;;;;;18.76;71.84;95520.63;5132342;27;20130;-79
2023/07/08 05:40:43;;;;;;;18.88;10.98;;;;;;;18.98;71.52;95565.34;5099228;27;20489;-79
2023/07/08 05:43:09;;;;;;;15.45;10.15;;;;;;;18.86;71.45;95515.69;5106251;27;20027;-79
2023/07/08 05:45:35;;;;;;;13.95;9.20;;;;;;;19.00;71.46;95545.09;5110179;27;20027;-79
2023/07/08 05:48:01;;;;;;;15.88;10.45;;;;;;;18.99;71.39;95542.75;5129681;27;20267;-79
2023/07/08 05:50:27;;;;;;;16.50;9.80;;;;;;;19.02;71.40;95539.41;5107761;27;20019;-79
2023/07/08 05:52:52;;;;;;;14.77;9.90;;;;;;;19.05;71.04;95554.91;5122621;27;20106;-79
2023/07/08 05:55:18;;;;;;;13.93;9.82;;;;;;;19.15;71.12;95549.19;5133812;27;20061;-79
2023/07/08 05:57:43;;;;;;;19.50;11.20;;;;;;;19.01;70.56;95545.88;5115158;27;20039;-79
2023/07/08 06:00:10;;;;;;;13.43;9.95;;;;;;;19.32;70.28;95570.69;5133374;27;20401;-79
2023/07/08 06:02:36;;;;;;;16.90;10.20;;;;;;;19.35;69.65;95590.78;5130118;27;20117;-79
2023/07/08 06:05:01;;;;;;;15.27;10.38;;;;;;;18.97;69.91;95505.44;5128737;27;20062;-79
2023/07/08 06:07:27;;;;;;;26.77;11.18;;;;;;;19.35;69.86;95553.13;5111022;28;20135;-79
2023/07/08 06:09:55;;;;;;;21.67;10.50;;;;;;;19.42;69.04;95534.59;5123923;27;20514;-79
2023/07/08 06:12:21;;;;;;;16.13;9.95;;;;;;;19.50;68.60;95518.47;5112144;28;20049;-79
2023/07/08 06:14:47;;;;;;;16.95;10.38;;;;;;;19.74;67.70;95562.88;5094059;28;20032;-79
2023/07/08 06:17:12;;;;;;;17.58;10.57;;;;;;;19.53;67.66;95539.31;5113953;27;20098;-79
2023/07/08 06:19:37;;;;;;;17.65;10.82;;;;;;;19.77;67.76;95554.13;5113488;27;20118;-79
2023/07/08 06:22:03;;;;;;;16.10;9.95;;;;;;;19.90;66.67;95575.47;5115435;27;20031;-79
2023/07/08 06:24:28;;;;;;;23.65;10.48;;;;;;;19.75;66.83;95538.34;5111260;27;20114;-79
2023/07/08 06:26:54;;;;;;;15.30;10.25;;;;;;;19.75;66.38;95570.63;5131829;27;20103;-79
2023/07/08 06:29:19;;;;;;;14.50;10.02;;;;;;;19.89;66.25;95560.44;5132795;27;20027;-79
2023/07/08 06:31:45;;;;;;;13.73;10.15;;;;;;;20.04;66.04;95564.50;5131135;27;20038;-79
2023/07/08 06:34:10;;;;;;;14.90;10.10;;;;;;;19.95;65.85;95594.13;5114162;27;20035;-79
2023/07/08 06:36:36;;;;;;;14.85;9.80;;;;;;;20.02;65.20;95596.31;5113468;27;20023;-79
2023/07/08 06:39:01;;;;;;;20.85;8.77;;;;;;;19.71;64.26;95523.94;5114822;27;20489;-79
2023/07/08 06:41:27;;;;;;;20.23;8.50;;;;;;;19.89;63.93;95562.34;5108146;28;20027;-79
2023/07/08 06:43:53;;;;;;;14.57;9.35;;;;;;;20.04;64.66;95565.28;5130911;27;20081;-79
2023/07/08 06:46:19;;;;;;;17.95;9.63;;;;;;;20.04;64.67;95549.13;5130452;27;20023;-79
2023/07/08 06:48:45;;;;;;;13.23;8.35;;;;;;;20.14;64.18;95572.19;5131668;27;20023;-79
2023/07/08 06:51:10;;;;;;;20.25;8.93;;;;;;;20.06;64.05;95545.31;5134396;27;20491;-79
2023/07/08 06:53:35;;;;;;;20.90;8.50;;;;;;;20.07;63.95;95542.28;5110664;27;20510;-79
2023/07/08 06:56:02;;;;;;;16.65;8.23;;;;;;;20.36;64.32;95573.88;5114989;27;20045;-79
2023/07/08 06:58:27;;;;;;;21.88;8.43;;;;;;;20.30;63.32;95602.06;5108311;27;20050;-79
2023/07/08 07:00:53;;;;;;;13.90;7.88;;;;;;;19.99;62.46;95545.81;5108253;28;20115;-79
2023/07/08 07:03:19;;;;;;;14.35;7.32;;;;;;;19.93;62.47;95544.41;5125545;27;20027;-79
2023/07/08 07:05:44;;;;;;;13.95;8.20;;;;;;;19.92;63.07;95548.22;5107287;28;20494;-79
2023/07/08 07:08:10;;;;;;;22.67;8.05;;;;;;;19.84;62.51;95573.25;5109560;27;20030;-79
2023/07/08 07:10:35;;;;;;;10.82;7.30;;;;;;;20.21;61.23;95567.09;5113745;27;20054;-79
2023/07/08 07:13:01;;;;;;;22.02;8.27;;;;;;;20.15;61.41;95544.16;5112124;27;20031;-79
2023/07/08 07:15:26;;;;;;;19.00;8.15;;;;;;;20.08;61.94;95576.19;5112111;27;20516;-79
2023/07/08 07:17:52;;;;;;;18.25;8.07;;;;;;;20.28;62.20;95569.28;5100023;28;20031;-79
2023/07/08 07:20:17;;;;;;;13.63;7.97;;;;;;;20.27;61.48;95551.53;5124329;27;20043;-79
2023/07/08 07:22:43;;;;;;;12.35;8.18;;;;;;;20.15;61.36;95563.00;5115523;27;20034;-79
2023/07/08 07:25:09;;;;;;;16.52;8.60;;;;;;;20.26;61.44;95595.75;5106056;28;20028;-79
2023/07/08 07:27:34;;;;;;;12.40;8.40;;;;;;;20.42;62.47;95605.69;5141392;27;20437;-79
2023/07/08 07:30:00;;;;;;;15.20;8.27;;;;;;;20.23;61.79;95597.19;5113210;27;20027;-79
2023/07/08 07:32:26;;;;;;;15.52;8.88;;;;;;;20.45;62.02;95623.06;5143776;27;20022;-79
2023/07/08 07:34:52;;;;;;;14.27;9.20;;;;;;;20.17;61.12;95574.25;5149555;27;20031;-79
2023/07/08 07:37:21;;;;;;;10.25;7.82;;;;;;;20.33;61.82;95639.94;5109152;27;20027;-79
2023/07/08 07:39:47;;;;;;;17.40;8.20;;;;;;;20.14;61.82;95614.50;5131511;27;20420;-79
2023/07/08 07:42:14;;;;;;;11.70;8.43;;;;;;;20.26;62.42;95630.75;5110004;27;20053;-79
2023/07/08 07:44:40;;;;;;;23.90;9.10;;;;;;;19.96;62.57;95560.72;5140443;27;20026;-79
2023/07/08 07:47:06;;;;;;;14.60;8.32;;;;;;;20.34;62.33;95605.72;5136157;27;20050;-79
2023/07/08 07:49:32;;;;;;;11.38;7.45;;;;;;;20.07;61.84;95546.88;5130409;27;20076;-79
2023/07/08 07:51:58;;;;;;;13.75;7.57;;;;;;;20.22;62.17;95592.09;5109194;28;20456;-80
2023/07/08 07:54:23;;;;;;;12.32;7.93;;;;;;;19.94;61.92;95575.59;5142967;27;20034;-79
2023/07/08 07:56:49;;;;;;;14.27;8.00;;;;;;;19.81;61.46;95526.28;5129722;27;20565;-79
2023/07/08 07:59:14;;;;;;;10.98;7.90;;;;;;;20.07;61.56;95550.38;5109261;27;20095;-79
2023/07/08 08:01:41;;;;;;;13.15;8.68;;;;;;;20.48;62.02;95590.09;5113548;28;20019;-80
2023/07/08 08:04:08;;;;;;;16.60;7.82;;;;;;;20.45;61.09;95576.50;5136371;27;20491;-79
2023/07/08 08:06:34;;;;;;;13.63;8.40;;;;;;;20.79;60.71;95603.22;5113090;28;20035;-79
2023/07/08 08:08:59;;;;;;;17.42;8.70;;;;;;;20.61;59.97;95554.03;5125241;28;20024;-79
2023/07/08 08:11:25;;;;;;;9.25;7.22;;;;;;;20.96;59.66;95607.72;5136650;27;20026;-79
2023/07/08 08:13:51;;;;;;;13.38;8.15;;;;;;;20.79;60.16;95581.66;5119708;28;20042;-79
2023/07/08 08:16:18;;;;;;;15.50;8.50;;;;;;;20.79;60.36;95563.59;5138832;27;20078;-79
2023/07/08 08:18:44;;;;;;;16.27;8.00;;;;;;;21.09;59.31;95588.56;5143255;27;20057;-79
2023/07/08 08:21:09;;;;;;;10.07;7.90;;;;;;;21.21;59.46;95605.97;5148369;27;20031;-79
2023/07/08 08:23:35;;;;;;;9.70;7.88;;;;;;;21.02;58.97;95584.81;5146419;27;20093;-79
2023/07/08 08:26:00;;;;;;;13.00;8.05;;;;;;;21.14;58.80;95606.44;5127136;27;20031;-79
2023/07/08 08:28:25;;;;;;;11.80;7.00;;;;;;;21.03;57.88;95586.41;5120643;27;20459;-79
2023/07/08 08:30:51;;;;;;;13.23;8.20;;;;;;;21.00;58.88;95598.63;5135771;27;20038;-79
2023/07/08 08:33:17;;;;;;;15.18;8.18;;;;;;;20.91;59.42;95579.03;5134909;27;20031;-79
2023/07/08 08:35:43;;;;;;;13.07;7.78;;;;;;;21.13;58.76;95597.56;5135553;27;20090;-79
2023/07/08 08:38:09;;;;;;;12.07;7.72;;;;;;;21.16;58.75;95588.84;5116507;27;20035;-79
2023/07/08 08:40:34;;;;;;;12.38;7.93;;;;;;;21.29;57.93;95595.09;5116221;27;20022;-79
2023/07/08 08:43:06;;;;;;;9.45;7.03;;;;;;;21.09;58.66;95591.25;5136576;27;20050;-79
2023/07/08 08:45:41;;;;;;;13.73;8.35;;;;;;;21.28;58.93;95604.31;5145504;27;20022;-79
2023/07/08 08:48:13;;;;;;;14.98;9.77;;;;;;;21.26;59.98;95592.28;5152392;27;20034;-79
2023/07/08 08:50:44;;;;;;;10.93;8.30;;;;;;;21.39;59.99;95612.78;5120684;27;20106;-79
2023/07/08 08:53:12;;;;;;;;;;;;;;;21.44;58.72;95589.06;5112908;27;20133;-79
2023/07/08 08:55:38;;;;;;;11.30;7.18;;;;;;;21.47;58.46;95579.53;5133685;27;19919;-79
2023/07/08 08:58:17;;;;;;;16.13;7.90;;;;;;;21.63;57.59;95612.06;5122134;27;20377;-79
2023/07/08 09:00:59;;;;;;;11.88;8.25;;;;;;;21.61;57.87;95608.91;5123536;27;20034;-79
2023/07/08 09:03:33;;;;;;;14.05;8.23;;;;;;;21.68;58.15;95601.06;5138927;27;20035;-79
2023/07/08 09:06:00;;;;;;;13.63;7.93;;;;;;;21.69;57.13;95589.94;5113826;27;20048;-79
2023/07/08 09:08:34;;;;;;;12.43;8.23;;;;;;;21.66;57.77;95598.72;5116199;27;20023;-79
2023/07/08 09:11:18;;;;;;;9.77;7.03;;;;;;;21.77;57.25;95591.75;5134335;27;20031;-79
2023/07/08 09:13:44;;;;;;;10.85;7.78;;;;;;;21.61;57.10;95560.34;5117581;27;20043;-79
2023/07/08 09:16:18;;;;;;;16.98;8.50;;;;;;;21.87;57.42;95582.44;5134639;27;20034;-79
2023/07/08 09:18:50;;;;;;;13.13;8.35;;;;;;;21.89;58.27;95566.72;5125891;27;20120;-79
2023/07/08 09:21:22;;;;;;;13.23;8.38;;;;;;;21.86;56.76;95576.25;5114762;27;20042;-79
2023/07/08 09:23:51;;;;;;;15.63;7.78;;;;;;;21.83;56.71;95579.63;5115802;27;20043;-79
2023/07/08 09:26:21;;;;;;;12.43;8.25;;;;;;;21.73;57.44;95520.69;5115094;27;20412;-79
2023/07/08 09:28:46;;;;;;;12.13;8.02;;;;;;;21.98;56.55;95562.00;5141019;27;20034;-79
2023/07/08 09:31:28;;;;;;;9.13;7.00;;;;;;;21.84;56.63;95562.28;5102044;27;20042;-79
2023/07/08 09:34:05;;;;;;;16.67;7.63;;;;;;;21.98;55.77;95574.72;5140099;27;20432;-79
2023/07/08 09:36:31;;;;;;;9.70;8.02;;;;;;;22.09;55.76;95571.25;5134474;27;20035;-79
2023/07/08 09:38:56;;;;;;;9.95;7.47;;;;;;;22.02;56.64;95543.22;5144459;27;20113;-79
2023/07/08 09:41:30;;;;;;;13.15;7.50;;;;;;;21.89;56.20;95526.22;5124879;27;20515;-79
2023/07/08 09:44:26;;;;;;;10.85;8.05;;;;;;;22.34;56.47;95582.84;5116362;27;20035;-79
2023/07/08 09:46:53;;;;;;;12.55;7.28;;;;;;;21.72;54.74;95489.41;5132656;27;20067;-79
2023/07/08 09:49:22;;;;;;;12.88;6.22;;;;;;;22.58;53.58;95533.41;5123474;27;20031;-79
2023/07/08 09:51:51;;;;;;;11.60;6.88;;;;;;;23.03;52.70;95557.53;5115476;27;20027;-79
2023/07/08 09:54:18;;;;;;;13.15;6.40;;;;;;;23.43;52.18;95547.44;5115660;27;20035;-79
2023/07/08 09:57:09;;;;;;;10.18;5.72;;;;;;;23.83;49.96;95517.56;5134084;27;20562;-79
2023/07/08 09:59:45;;;;;;;11.60;6.10;;;;;;;24.54;48.77;95532.03;5129357;27;20043;-79
2023/07/08 10:02:38;;;;;;;10.10;5.82;;;;;;;25.29;48.08;95556.88;5137293;27;20039;-79
2023/07/08 10:05:29;;;;;;;9.25;5.75;;;;;;;25.54;45.93;95553.88;5110692;27;20053;-79
2023/07/08 10:07:57;;;;;;;10.55;5.90;;;;;;;26.08;44.96;95534.66;5115764;27;20038;-80
2023/07/08 10:10:34;;;;;;;6.97;5.50;;;;;;;26.45;44.50;95538.38;5137763;27;20031;-79
2023/07/08 10:13:04;;;;;;;6.53;5.30;;;;;;;25.95;43.55;95553.06;5111076;27;20035;-79
2023/07/08 10:15:41;;;;;;;7.65;5.32;;;;;;;26.29;43.51;95545.09;5111861;27;20035;-79
2023/07/08 10:18:17;;;;;;;8.02;5.47;;;;;;;25.93;43.62;95541.78;5112389;28;20085;-79
2023/07/08 10:21:03;;;;;;;8.80;5.22;;;;;;;25.86;43.45;95527.31;5121835;27;20064;-80
2023/07/08 10:23:42;;;;;;;7.90;5.53;;;;;;;26.75;42.54;95530.25;5145632;27;20389;-79
2023/07/08 10:26:17;;;;;;;6.72;5.10;;;;;;;26.57;42.08;95529.22;5103063;27;20030;-79
2023/07/08 10:28:42;;;;;;;6.55;5.38;;;;;;;27.02;41.71;95532.94;5119902;27;20054;-79
2023/07/08 10:31:15;;;;;;;9.15;5.85;;;;;;;26.39;42.61;95531.69;5147912;27;20472;-80
2023/07/08 10:33:59;;;;;;;7.07;5.22;;;;;;;26.72;42.01;95536.41;5121654;27;20106;-79
2023/07/08 10:36:49;;;;;;;7.63;4.90;;;;;;;26.17;42.33;95531.69;5130365;27;20525;-79
2023/07/08 10:39:42;;;;;;;13.00;5.30;;;;;;;26.69;42.00;95515.41;5129843;27;20031;-80
2023/07/08 10:42:13;;;;;;;7.95;5.15;;;;;;;27.18;40.75;95503.59;5099665;27;20121;-80
2023/07/08 10:44:45;;;;;;;8.05;5.03;;;;;;;27.24;41.61;95504.81;5137455;27;20054;-79
2023/07/08 10:47:33;;;;;;;5.32;4.47;;;;;;;27.43;40.57;95507.38;5108762;28;20115;-79
2023/07/08 10:49:58;;;;;;;6.78;4.97;;;;;;;27.27;40.22;95523.16;5103225;27;20029;-79
2023/07/08 10:52:33;;;;;;;8.02;5.10;;;;;;;27.18;40.78;95522.66;5113412;27;20027;-79
2023/07/08 10:55:06;;;;;;;9.20;4.70;;;;;;;26.75;40.96;95518.59;5142043;27;20067;-79
2023/07/08 10:57:51;;;;;;;6.90;4.45;;;;;;;27.19;40.16;95499.72;5124847;27;20031;-80
2023/07/08 11:00:31;;;;;;;7.97;4.70;;;;;;;26.48;40.52;95466.13;5120507;27;20039;-79
2023/07/08 11:03:33;;;;;;;7.35;4.97;;;;;;;26.99;40.71;95507.28;5123067;27;20027;-79
2023/07/08 11:06:21;;;;;;;12.13;4.95;;;;;;;26.71;40.71;95498.69;5114648;27;20039;-79
2023/07/08 11:09:00;;;;;;;9.07;4.85;;;;;;;26.84;40.12;95500.06;5105519;27;20061;-80
2023/07/08 11:11:45;;;;;;;9.45;4.88;;;;;;;27.03;40.32;95475.41;5129344;27;20420;-79
2023/07/08 11:14:43;;;;;;;10.00;5.32;;;;;;;26.75;41.09;95448.63;5121646;27;20097;-79
2023/07/08 11:17:23;;;;;;;9.27;5.18;;;;;;;27.02;41.34;95497.56;5124358;27;20044;-80
2023/07/08 11:20:23;;;;;;;8.77;5.35;;;;;;;27.23;40.58;95467.88;5146888;27;20077;-79
2023/07/08 11:23:19;;;;;;;7.90;4.78;;;;;;;26.91;39.61;95442.22;5103349;27;20086;-79
2023/07/08 11:25:47;;;;;;;8.15;4.85;;;;;;;27.17;39.68;95444.84;5118231;27;20034;-79
2023/07/08 11:28:18;;;;;;;8.05;4.85;;;;;;;27.69;39.05;95473.81;5123375;27;20095;-80
2023/07/08 11:30:46;;;;;;;10.90;5.35;;;;;;;27.86;38.71;95458.75;5130969;27;20035;-79